sensor_id;sensor_type;location;lat;lon;timestamp;P1;P2;P0
62631;PMS5003;48703;51.248;-0.546;2023-03-01T00:01:28;20.40;17.93;
62631;PMS5003;48703;51.248;-0.546;2023-03-01T00:04:29;21.20;20.29;
62631;PMS5003;48703;51.248;-0.546;2023-03-01T00:07:30;22.06;21.29;
62631;PMS5003;48703;51.248;-0.546;2023-03-01T00:10:31;21.52;19.19;
62631;PMS5003;48703;51.248;-0.546;2023-03-01T00:13:32;24.30;19.83;
62631;PMS5003;48703;51.248;-0.546;2023-03-01T00:16:34;22.93;22.26;
62631;PMS5003;48703;51.248;-0.546;2023-03-01T00:19:35;24.10;22.03;
62631;PMS5003;48703;51.248;-0.546;2023-03-01T00:22:36;23.49;21.77;
62631;PMS5003;48703;51.248;-0.546;2023-03-01T00:25:40;25.34;22.06;
62631;PMS5003;48703;51.248;-0.546;2023-03-01T00:28:39;26.27;22.56;
62631;PMS5003;48703;51.248;-0.546;2023-03-01T00:31:40;27.22;25.07;
62631;PMS5003;48703;51.248;-0.546;2023-03-01T00:34:41;23.69;21.47;
62631;PMS5003;48703;51.248;-0.546;2023-03-01T00:37:43;28.04;25.30;
62631;PMS5003;48703;51.248;-0.546;2023-03-01T00:40:44;28.19;26.22;
62631;PMS5003;48703;51.248;-0.546;2023-03-01T00:43:45;27.71;25.23;
62631;PMS5003;48703;51.248;-0.546;2023-03-01T00:46:47;25.49;24.51;
62631;PMS5003;48703;51.248;-0.546;2023-03-01T00:49:48;28.26;24.20;
62631;PMS5003;48703;51.248;-0.546;2023-03-01T00:52:52;22.80;21.09;
62631;PMS5003;48703;51.248;-0.546;2023-03-01T00:55:51;25.10;22.56;
62631;PMS5003;48703;51.248;-0.546;2023-03-01T00:58:53;27.46;24.80;
62631;PMS5003;48703;51.248;-0.546;2023-03-01T01:01:54;27.50;24.90;
62631;PMS5003;48703;51.248;-0.546;2023-03-01T01:04:55;28.91;25.74;
62631;PMS5003;48703;51.248;-0.546;2023-03-01T01:07:56;29.01;24.94;
62631;PMS5003;48703;51.248;-0.546;2023-03-01T01:10:57;28.78;25.54;
62631;PMS5003;48703;51.248;-0.546;2023-03-01T01:13:59;26.00;24.28;
62631;PMS5003;48703;51.248;-0.546;2023-03-01T01:17:00;27.14;25.69;
62631;PMS5003;48703;51.248;-0.546;2023-03-01T01:20:00;28.16;26.25;
62631;PMS5003;48703;51.248;-0.546;2023-03-01T01:23:02;25.13;23.37;
62631;PMS5003;48703;51.248;-0.546;2023-03-01T01:26:04;27.62;25.36;
62631;PMS5003;48703;51.248;-0.546;2023-03-01T01:29:05;27.50;25.17;
62631;PMS5003;48703;51.248;-0.546;2023-03-01T01:32:06;31.58;29.19;
62631;PMS5003;48703;51.248;-0.546;2023-03-01T01:35:07;29.55;26.70;
62631;PMS5003;48703;51.248;-0.546;2023-03-01T01:38:08;32.71;29.90;
62631;PMS5003;48703;51.248;-0.546;2023-03-01T01:41:11;29.01;28.29;
62631;PMS5003;48703;51.248;-0.546;2023-03-01T01:44:13;32.72;29.52;
62631;PMS5003;48703;51.248;-0.546;2023-03-01T01:47:14;36.99;32.70;
62631;PMS5003;48703;51.248;-0.546;2023-03-01T01:50:15;35.20;32.57;
62631;PMS5003;48703;51.248;-0.546;2023-03-01T01:53:16;38.84;33.90;
62631;PMS5003;48703;51.248;-0.546;2023-03-01T01:56:17;35.45;33.43;
62631;PMS5003;48703;51.248;-0.546;2023-03-01T01:59:18;36.07;31.43;
62631;PMS5003;48703;51.248;-0.546;2023-03-01T02:02:20;30.97;28.54;
62631;PMS5003;48703;51.248;-0.546;2023-03-01T02:05:24;35.99;34.04;
62631;PMS5003;48703;51.248;-0.546;2023-03-01T02:08:24;32.70;30.17;
62631;PMS5003;48703;51.248;-0.546;2023-03-01T02:11:25;37.96;32.43;
62631;PMS5003;48703;51.248;-0.546;2023-03-01T02:14:28;34.84;32.04;
62631;PMS5003;48703;51.248;-0.546;2023-03-01T02:17:28;36.47;33.93;
62631;PMS5003;48703;51.248;-0.546;2023-03-01T02:20:31;32.33;29.16;
62631;PMS5003;48703;51.248;-0.546;2023-03-01T02:23:30;38.93;35.38;
62631;PMS5003;48703;51.248;-0.546;2023-03-01T02:26:33;34.14;31.55;
62631;PMS5003;48703;51.248;-0.546;2023-03-01T02:29:34;34.26;31.57;
62631;PMS5003;48703;51.248;-0.546;2023-03-01T02:32:35;37.53;33.29;
62631;PMS5003;48703;51.248;-0.546;2023-03-01T02:35:37;36.78;34.12;
62631;PMS5003;48703;51.248;-0.546;2023-03-01T02:38:38;37.57;35.07;
62631;PMS5003;48703;51.248;-0.546;2023-03-01T02:41:41;34.09;31.09;
62631;PMS5003;48703;51.248;-0.546;2023-03-01T02:44:40;36.91;33.13;
62631;PMS5003;48703;51.248;-0.546;2023-03-01T02:47:42;35.09;31.26;
62631;PMS5003;48703;51.248;-0.546;2023-03-01T02:50:46;38.72;33.55;
62631;PMS5003;48703;51.248;-0.546;2023-03-01T02:53:47;35.04;33.06;
62631;PMS5003;48703;51.248;-0.546;2023-03-01T02:56:46;32.55;29.06;
62631;PMS5003;48703;51.248;-0.546;2023-03-01T02:59:47;33.87;31.06;
62631;PMS5003;48703;51.248;-0.546;2023-03-01T03:02:49;33.94;30.04;
62631;PMS5003;48703;51.248;-0.546;2023-03-01T03:05:49;35.87;32.29;
62631;PMS5003;48703;51.248;-0.546;2023-03-01T03:08:50;34.79;31.31;
62631;PMS5003;48703;51.248;-0.546;2023-03-01T03:11:52;37.90;33.29;
62631;PMS5003;48703;51.248;-0.546;2023-03-01T03:14:53;38.87;33.59;
62631;PMS5003;48703;51.248;-0.546;2023-03-01T03:17:55;38.33;33.67;
62631;PMS5003;48703;51.248;-0.546;2023-03-01T03:20:55;35.78;33.50;
62631;PMS5003;48703;51.248;-0.546;2023-03-01T03:23:57;37.43;33.68;
62631;PMS5003;48703;51.248;-0.546;2023-03-01T03:26:59;36.34;33.30;
62631;PMS5003;48703;51.248;-0.546;2023-03-01T03:30:00;40.40;36.56;
62631;PMS5003;48703;51.248;-0.546;2023-03-01T03:33:01;41.54;37.60;
62631;PMS5003;48703;51.248;-0.546;2023-03-01T03:36:02;39.62;34.07;
62631;PMS5003;48703;51.248;-0.546;2023-03-01T03:39:04;40.62;37.71;
62631;PMS5003;48703;51.248;-0.546;2023-03-01T03:42:04;38.59;35.09;
62631;PMS5003;48703;51.248;-0.546;2023-03-01T03:45:07;36.60;34.31;
62631;PMS5003;48703;51.248;-0.546;2023-03-01T03:48:09;38.25;36.09;
62631;PMS5003;48703;51.248;-0.546;2023-03-01T03:51:10;34.26;29.87;
62631;PMS5003;48703;51.248;-0.546;2023-03-01T03:54:11;36.14;34.22;
62631;PMS5003;48703;51.248;-0.546;2023-03-01T03:57:12;37.86;34.55;
62631;PMS5003;48703;51.248;-0.546;2023-03-01T04:00:14;34.67;32.10;
62631;PMS5003;48703;51.248;-0.546;2023-03-01T04:03:15;35.79;31.99;
62631;PMS5003;48703;51.248;-0.546;2023-03-01T04:06:17;34.49;31.99;
62631;PMS5003;48703;51.248;-0.546;2023-03-01T04:09:18;31.71;29.32;
62631;PMS5003;48703;51.248;-0.546;2023-03-01T04:12:20;31.69;27.44;
62631;PMS5003;48703;51.248;-0.546;2023-03-01T04:15:21;36.14;30.87;
62631;PMS5003;48703;51.248;-0.546;2023-03-01T04:18:23;36.48;32.10;
62631;PMS5003;48703;51.248;-0.546;2023-03-01T04:21:23;29.93;26.36;
62631;PMS5003;48703;51.248;-0.546;2023-03-01T04:24:24;26.97;24.62;
62631;PMS5003;48703;51.248;-0.546;2023-03-01T04:27:26;22.69;21.26;
62631;PMS5003;48703;51.248;-0.546;2023-03-01T04:30:28;26.14;23.17;
62631;PMS5003;48703;51.248;-0.546;2023-03-01T04:33:29;20.67;19.03;
62631;PMS5003;48703;51.248;-0.546;2023-03-01T04:36:30;19.26;17.07;
62631;PMS5003;48703;51.248;-0.546;2023-03-01T04:39:32;16.74;15.33;
62631;PMS5003;48703;51.248;-0.546;2023-03-01T04:42:33;16.07;13.37;
62631;PMS5003;48703;51.248;-0.546;2023-03-01T04:45:35;11.90;10.66;
62631;PMS5003;48703;51.248;-0.546;2023-03-01T04:48:36;10.54;9.74;
62631;PMS5003;48703;51.248;-0.546;2023-03-01T04:51:38;7.47;6.89;
62631;PMS5003;48703;51.248;-0.546;2023-03-01T04:54:40;6.29;6.11;
62631;PMS5003;48703;51.248;-0.546;2023-03-01T04:57:42;6.91;6.11;
62631;PMS5003;48703;51.248;-0.546;2023-03-01T05:00:43;7.84;7.17;
62631;PMS5003;48703;51.248;-0.546;2023-03-01T05:03:46;7.10;6.19;
62631;PMS5003;48703;51.248;-0.546;2023-03-01T05:06:47;7.41;6.81;
62631;PMS5003;48703;51.248;-0.546;2023-03-01T05:09:49;8.13;6.79;
62631;PMS5003;48703;51.248;-0.546;2023-03-01T05:12:50;9.07;7.56;
62631;PMS5003;48703;51.248;-0.546;2023-03-01T05:15:53;7.73;7.33;
62631;PMS5003;48703;51.248;-0.546;2023-03-01T05:18:54;7.16;6.89;
62631;PMS5003;48703;51.248;-0.546;2023-03-01T05:21:56;7.44;7.44;
62631;PMS5003;48703;51.248;-0.546;2023-03-01T05:24:58;9.09;8.16;
62631;PMS5003;48703;51.248;-0.546;2023-03-01T05:28:00;7.86;7.21;
62631;PMS5003;48703;51.248;-0.546;2023-03-01T05:31:02;6.54;6.40;
62631;PMS5003;48703;51.248;-0.546;2023-03-01T05:34:03;7.17;6.66;
62631;PMS5003;48703;51.248;-0.546;2023-03-01T05:37:05;6.93;6.93;
62631;PMS5003;48703;51.248;-0.546;2023-03-01T05:40:08;7.39;6.43;
62631;PMS5003;48703;51.248;-0.546;2023-03-01T05:43:09;8.56;7.49;
62631;PMS5003;48703;51.248;-0.546;2023-03-01T05:46:11;6.43;6.43;
62631;PMS5003;48703;51.248;-0.546;2023-03-01T05:49:13;7.36;7.13;
62631;PMS5003;48703;51.248;-0.546;2023-03-01T05:52:14;6.69;6.26;
62631;PMS5003;48703;51.248;-0.546;2023-03-01T05:55:17;7.30;6.83;
62631;PMS5003;48703;51.248;-0.546;2023-03-01T05:58:19;7.09;6.81;
62631;PMS5003;48703;51.248;-0.546;2023-03-01T06:01:20;7.01;6.59;
62631;PMS5003;48703;51.248;-0.546;2023-03-01T06:04:22;6.99;6.56;
62631;PMS5003;48703;51.248;-0.546;2023-03-01T06:07:24;9.30;7.96;
62631;PMS5003;48703;51.248;-0.546;2023-03-01T06:10:26;7.33;7.33;
62631;PMS5003;48703;51.248;-0.546;2023-03-01T06:13:28;7.66;7.40;
62631;PMS5003;48703;51.248;-0.546;2023-03-01T06:16:29;9.43;8.40;
62631;PMS5003;48703;51.248;-0.546;2023-03-01T06:19:31;6.86;6.43;
62631;PMS5003;48703;51.248;-0.546;2023-03-01T06:22:33;8.59;7.47;
62631;PMS5003;48703;51.248;-0.546;2023-03-01T06:25:35;8.93;7.46;
62631;PMS5003;48703;51.248;-0.546;2023-03-01T06:28:36;10.81;9.57;
62631;PMS5003;48703;51.248;-0.546;2023-03-01T06:31:38;8.24;8.03;
62631;PMS5003;48703;51.248;-0.546;2023-03-01T06:34:40;8.67;7.87;
62631;PMS5003;48703;51.248;-0.546;2023-03-01T06:37:42;8.59;7.67;
62631;PMS5003;48703;51.248;-0.546;2023-03-01T06:40:44;8.60;8.26;
62631;PMS5003;48703;51.248;-0.546;2023-03-01T06:43:45;9.57;8.61;
62631;PMS5003;48703;51.248;-0.546;2023-03-01T06:46:47;10.04;8.79;
62631;PMS5003;48703;51.248;-0.546;2023-03-01T06:49:49;10.11;9.73;
62631;PMS5003;48703;51.248;-0.546;2023-03-01T06:52:55;9.10;8.73;
62631;PMS5003;48703;51.248;-0.546;2023-03-01T06:55:54;8.69;8.44;
62631;PMS5003;48703;51.248;-0.546;2023-03-01T06:58:55;8.09;7.60;
62631;PMS5003;48703;51.248;-0.546;2023-03-01T07:01:55;9.33;8.87;
62631;PMS5003;48703;51.248;-0.546;2023-03-01T07:04:57;9.50;8.80;
62631;PMS5003;48703;51.248;-0.546;2023-03-01T07:07:59;9.49;8.73;
62631;PMS5003;48703;51.248;-0.546;2023-03-01T07:11:01;7.41;7.33;
62631;PMS5003;48703;51.248;-0.546;2023-03-01T07:14:03;8.96;8.47;
62631;PMS5003;48703;51.248;-0.546;2023-03-01T07:17:04;9.68;8.61;
62631;PMS5003;48703;51.248;-0.546;2023-03-01T07:20:07;7.97;7.39;
62631;PMS5003;48703;51.248;-0.546;2023-03-01T07:23:08;7.10;6.76;
62631;PMS5003;48703;51.248;-0.546;2023-03-01T07:26:10;6.87;6.87;
62631;PMS5003;48703;51.248;-0.546;2023-03-01T07:29:12;7.21;6.60;
62631;PMS5003;48703;51.248;-0.546;2023-03-01T07:32:14;6.67;6.67;
62631;PMS5003;48703;51.248;-0.546;2023-03-01T07:35:16;6.47;6.47;
62631;PMS5003;48703;51.248;-0.546;2023-03-01T07:38:17;8.46;6.94;
62631;PMS5003;48703;51.248;-0.546;2023-03-01T07:41:19;7.97;6.86;
62631;PMS5003;48703;51.248;-0.546;2023-03-01T07:44:21;8.01;6.21;
62631;PMS5003;48703;51.248;-0.546;2023-03-01T07:47:23;6.90;6.09;
62631;PMS5003;48703;51.248;-0.546;2023-03-01T07:50:24;7.43;6.30;
62631;PMS5003;48703;51.248;-0.546;2023-03-01T07:53:26;5.83;5.26;
62631;PMS5003;48703;51.248;-0.546;2023-03-01T07:56:28;6.94;6.67;
62631;PMS5003;48703;51.248;-0.546;2023-03-01T07:59:30;7.16;5.53;
62631;PMS5003;48703;51.248;-0.546;2023-03-01T08:02:32;6.90;6.17;
62631;PMS5003;48703;51.248;-0.546;2023-03-01T08:05:34;8.30;7.23;
62631;PMS5003;48703;51.248;-0.546;2023-03-01T08:08:35;8.01;7.48;
62631;PMS5003;48703;51.248;-0.546;2023-03-01T08:11:37;6.36;5.37;
62631;PMS5003;48703;51.248;-0.546;2023-03-01T08:14:39;6.64;6.20;
62631;PMS5003;48703;51.248;-0.546;2023-03-01T08:17:41;6.40;5.74;
62631;PMS5003;48703;51.248;-0.546;2023-03-01T08:20:43;7.80;6.01;
62631;PMS5003;48703;51.248;-0.546;2023-03-01T08:23:45;6.00;5.83;
62631;PMS5003;48703;51.248;-0.546;2023-03-01T08:26:46;6.10;6.10;
62631;PMS5003;48703;51.248;-0.546;2023-03-01T08:29:48;5.39;4.96;
62631;PMS5003;48703;51.248;-0.546;2023-03-01T08:32:50;6.29;5.46;
62631;PMS5003;48703;51.248;-0.546;2023-03-01T08:35:52;5.79;5.56;
62631;PMS5003;48703;51.248;-0.546;2023-03-01T08:38:54;5.11;4.93;
62631;PMS5003;48703;51.248;-0.546;2023-03-01T08:41:55;6.66;6.41;
62631;PMS5003;48703;51.248;-0.546;2023-03-01T08:44:57;5.94;4.97;
62631;PMS5003;48703;51.248;-0.546;2023-03-01T08:47:59;6.76;6.00;
62631;PMS5003;48703;51.248;-0.546;2023-03-01T08:51:06;7.86;5.30;
62631;PMS5003;48703;51.248;-0.546;2023-03-01T08:54:02;6.84;6.23;
62631;PMS5003;48703;51.248;-0.546;2023-03-01T08:57:04;5.54;5.46;
62631;PMS5003;48703;51.248;-0.546;2023-03-01T09:00:08;6.50;6.31;
62631;PMS5003;48703;51.248;-0.546;2023-03-01T09:03:08;5.67;4.91;
62631;PMS5003;48703;51.248;-0.546;2023-03-01T09:06:10;10.79;6.99;
62631;PMS5003;48703;51.248;-0.546;2023-03-01T09:09:12;7.37;5.21;
62631;PMS5003;48703;51.248;-0.546;2023-03-01T09:12:13;4.40;3.76;
62631;PMS5003;48703;51.248;-0.546;2023-03-01T09:15:15;6.16;5.24;
62631;PMS5003;48703;51.248;-0.546;2023-03-01T09:18:17;4.89;4.89;
62631;PMS5003;48703;51.248;-0.546;2023-03-01T09:21:19;5.86;5.20;
62631;PMS5003;48703;51.248;-0.546;2023-03-01T09:24:21;5.06;4.57;
62631;PMS5003;48703;51.248;-0.546;2023-03-01T09:27:22;4.99;4.99;
62631;PMS5003;48703;51.248;-0.546;2023-03-01T09:30:24;5.60;5.60;
62631;PMS5003;48703;51.248;-0.546;2023-03-01T09:33:26;6.23;5.40;
62631;PMS5003;48703;51.248;-0.546;2023-03-01T09:36:27;6.46;5.54;
62631;PMS5003;48703;51.248;-0.546;2023-03-01T09:39:29;6.84;4.26;
62631;PMS5003;48703;51.248;-0.546;2023-03-01T09:41:44;5.49;4.90;
62631;PMS5003;48703;51.248;-0.546;2023-03-01T09:44:37;7.17;6.19;
62631;PMS5003;48703;51.248;-0.546;2023-03-01T09:47:35;5.74;5.40;
62631;PMS5003;48703;51.248;-0.546;2023-03-01T09:50:36;6.27;4.77;
62631;PMS5003;48703;51.248;-0.546;2023-03-01T09:53:37;5.74;4.70;
62631;PMS5003;48703;51.248;-0.546;2023-03-01T09:56:40;5.91;5.90;
62631;PMS5003;48703;51.248;-0.546;2023-03-01T09:59:46;6.71;4.73;
62631;PMS5003;48703;51.248;-0.546;2023-03-01T10:02:43;5.33;4.49;
62631;PMS5003;48703;51.248;-0.546;2023-03-01T10:05:48;4.59;4.03;
62631;PMS5003;48703;51.248;-0.546;2023-03-01T10:08:47;4.03;3.56;
62631;PMS5003;48703;51.248;-0.546;2023-03-01T10:11:48;3.53;3.40;
62631;PMS5003;48703;51.248;-0.546;2023-03-01T10:14:52;4.76;3.86;
62631;PMS5003;48703;51.248;-0.546;2023-03-01T10:17:52;4.69;4.00;
62631;PMS5003;48703;51.248;-0.546;2023-03-01T10:20:54;4.66;4.66;
62631;PMS5003;48703;51.248;-0.546;2023-03-01T10:23:55;4.99;4.21;
62631;PMS5003;48703;51.248;-0.546;2023-03-01T10:26:58;4.01;4.01;
62631;PMS5003;48703;51.248;-0.546;2023-03-01T10:30:01;4.24;4.24;
62631;PMS5003;48703;51.248;-0.546;2023-03-01T10:33:00;6.31;5.87;
62631;PMS5003;48703;51.248;-0.546;2023-03-01T10:36:02;6.16;5.71;
62631;PMS5003;48703;51.248;-0.546;2023-03-01T10:39:05;3.37;3.23;
62631;PMS5003;48703;51.248;-0.546;2023-03-01T10:42:15;2.99;2.99;
62631;PMS5003;48703;51.248;-0.546;2023-03-01T10:45:15;3.71;3.41;
62631;PMS5003;48703;51.248;-0.546;2023-03-01T10:48:11;2.97;2.97;
62631;PMS5003;48703;51.248;-0.546;2023-03-01T10:51:12;1.90;1.90;
62631;PMS5003;48703;51.248;-0.546;2023-03-01T10:54:16;3.94;2.99;
62631;PMS5003;48703;51.248;-0.546;2023-03-01T10:57:24;3.93;3.63;
62631;PMS5003;48703;51.248;-0.546;2023-03-01T11:00:18;3.00;2.96;
62631;PMS5003;48703;51.248;-0.546;2023-03-01T11:03:19;2.73;2.00;
62631;PMS5003;48703;51.248;-0.546;2023-03-01T11:06:20;1.36;1.23;
62631;PMS5003;48703;51.248;-0.546;2023-03-01T11:09:22;0.73;0.73;
62631;PMS5003;48703;51.248;-0.546;2023-03-01T11:12:23;0.54;0.54;
62631;PMS5003;48703;51.248;-0.546;2023-03-01T11:15:26;0.79;0.79;
62631;PMS5003;48703;51.248;-0.546;2023-03-01T11:18:27;0.20;0.20;
62631;PMS5003;48703;51.248;-0.546;2023-03-01T11:21:29;0.19;0.19;
62631;PMS5003;48703;51.248;-0.546;2023-03-01T11:24:33;0.26;0.26;
62631;PMS5003;48703;51.248;-0.546;2023-03-01T11:27:32;0.99;0.99;
62631;PMS5003;48703;51.248;-0.546;2023-03-01T11:30:35;1.73;1.34;
62631;PMS5003;48703;51.248;-0.546;2023-03-01T11:33:38;1.40;1.14;
62631;PMS5003;48703;51.248;-0.546;2023-03-01T11:36:39;1.39;1.33;
62631;PMS5003;48703;51.248;-0.546;2023-03-01T11:39:39;1.56;1.13;
62631;PMS5003;48703;51.248;-0.546;2023-03-01T11:42:43;1.29;0.64;
62631;PMS5003;48703;51.248;-0.546;2023-03-01T11:45:46;1.19;1.00;
62631;PMS5003;48703;51.248;-0.546;2023-03-01T11:48:46;1.83;1.83;
62631;PMS5003;48703;51.248;-0.546;2023-03-01T11:51:47;1.33;1.29;
62631;PMS5003;48703;51.248;-0.546;2023-03-01T11:54:50;1.19;0.89;
62631;PMS5003;48703;51.248;-0.546;2023-03-01T11:57:55;1.97;1.97;
62631;PMS5003;48703;51.248;-0.546;2023-03-01T12:00:56;1.73;1.16;
62631;PMS5003;48703;51.248;-0.546;2023-03-01T12:03:59;2.60;2.29;
62631;PMS5003;48703;51.248;-0.546;2023-03-01T12:06:55;2.44;2.30;
62631;PMS5003;48703;51.248;-0.546;2023-03-01T12:10:00;2.30;1.53;
62631;PMS5003;48703;51.248;-0.546;2023-03-01T12:13:03;2.20;1.37;
62631;PMS5003;48703;51.248;-0.546;2023-03-01T12:16:10;1.56;1.51;
62631;PMS5003;48703;51.248;-0.546;2023-03-01T12:19:05;0.97;0.97;
62631;PMS5003;48703;51.248;-0.546;2023-03-01T12:22:07;1.64;1.46;
62631;PMS5003;48703;51.248;-0.546;2023-03-01T12:25:19;1.91;1.91;
62631;PMS5003;48703;51.248;-0.546;2023-03-01T12:28:11;2.27;2.27;
62631;PMS5003;48703;51.248;-0.546;2023-03-01T12:31:14;3.21;2.66;
62631;PMS5003;48703;51.248;-0.546;2023-03-01T12:34:14;3.30;2.61;
62631;PMS5003;48703;51.248;-0.546;2023-03-01T12:37:15;2.56;2.30;
62631;PMS5003;48703;51.248;-0.546;2023-03-01T12:40:17;2.16;1.81;
62631;PMS5003;48703;51.248;-0.546;2023-03-01T12:43:19;1.74;1.74;
62631;PMS5003;48703;51.248;-0.546;2023-03-01T12:46:20;2.74;2.40;
62631;PMS5003;48703;51.248;-0.546;2023-03-01T12:49:20;1.94;1.94;
62631;PMS5003;48703;51.248;-0.546;2023-03-01T12:52:22;3.11;2.69;
62631;PMS5003;48703;51.248;-0.546;2023-03-01T12:55:26;2.17;2.17;
62631;PMS5003;48703;51.248;-0.546;2023-03-01T12:58:26;2.21;1.87;
62631;PMS5003;48703;51.248;-0.546;2023-03-01T13:01:29;3.91;3.36;
62631;PMS5003;48703;51.248;-0.546;2023-03-01T13:04:29;3.64;3.51;
62631;PMS5003;48703;51.248;-0.546;2023-03-01T13:07:30;3.99;3.24;
62631;PMS5003;48703;51.248;-0.546;2023-03-01T13:10:33;4.56;4.36;
62631;PMS5003;48703;51.248;-0.546;2023-03-01T13:13:32;3.96;3.70;
62631;PMS5003;48703;51.248;-0.546;2023-03-01T13:16:41;4.89;4.40;
62631;PMS5003;48703;51.248;-0.546;2023-03-01T13:19:36;3.71;3.50;
62631;PMS5003;48703;51.248;-0.546;2023-03-01T13:22:38;3.67;3.60;
62631;PMS5003;48703;51.248;-0.546;2023-03-01T13:26:00;4.16;3.39;
62631;PMS5003;48703;51.248;-0.546;2023-03-01T13:28:46;3.79;3.60;
62631;PMS5003;48703;51.248;-0.546;2023-03-01T13:34:47;4.83;4.83;
62631;PMS5003;48703;51.248;-0.546;2023-03-01T13:37:46;5.36;5.23;
62631;PMS5003;48703;51.248;-0.546;2023-03-01T13:40:57;4.74;4.27;
62631;PMS5003;48703;51.248;-0.546;2023-03-01T13:43:50;5.16;4.59;
62631;PMS5003;48703;51.248;-0.546;2023-03-01T13:46:51;5.41;4.56;
62631;PMS5003;48703;51.248;-0.546;2023-03-01T13:49:55;5.36;5.19;
62631;PMS5003;48703;51.248;-0.546;2023-03-01T13:52:56;4.31;4.21;
62631;PMS5003;48703;51.248;-0.546;2023-03-01T13:55:58;7.09;5.33;
62631;PMS5003;48703;51.248;-0.546;2023-03-01T13:58:59;7.31;6.59;
62631;PMS5003;48703;51.248;-0.546;2023-03-01T14:02:00;4.99;4.99;
62631;PMS5003;48703;51.248;-0.546;2023-03-01T14:05:02;6.19;5.96;
62631;PMS5003;48703;51.248;-0.546;2023-03-01T14:08:04;6.36;5.99;
62631;PMS5003;48703;51.248;-0.546;2023-03-01T14:11:16;5.69;5.69;
62631;PMS5003;48703;51.248;-0.546;2023-03-01T14:14:14;6.20;6.20;
62631;PMS5003;48703;51.248;-0.546;2023-03-01T14:17:14;7.29;5.79;
62631;PMS5003;48703;51.248;-0.546;2023-03-01T14:20:12;7.79;6.94;
62631;PMS5003;48703;51.248;-0.546;2023-03-01T14:23:13;7.79;6.27;
62631;PMS5003;48703;51.248;-0.546;2023-03-01T14:26:14;7.81;7.11;
62631;PMS5003;48703;51.248;-0.546;2023-03-01T14:29:23;6.83;6.07;
62631;PMS5003;48703;51.248;-0.546;2023-03-01T14:32:18;6.57;5.91;
62631;PMS5003;48703;51.248;-0.546;2023-03-01T14:35:20;6.77;6.11;
62631;PMS5003;48703;51.248;-0.546;2023-03-01T14:38:21;7.46;6.28;
62631;PMS5003;48703;51.248;-0.546;2023-03-01T14:41:23;9.31;8.76;
62631;PMS5003;48703;51.248;-0.546;2023-03-01T14:44:23;13.39;10.00;
62631;PMS5003;48703;51.248;-0.546;2023-03-01T14:47:26;9.57;8.41;
62631;PMS5003;48703;51.248;-0.546;2023-03-01T14:50:28;11.43;10.70;
62631;PMS5003;48703;51.248;-0.546;2023-03-01T14:53:29;8.44;8.19;
62631;PMS5003;48703;51.248;-0.546;2023-03-01T14:56:37;7.64;7.34;
62631;PMS5003;48703;51.248;-0.546;2023-03-01T14:59:33;7.49;7.06;
62631;PMS5003;48703;51.248;-0.546;2023-03-01T15:02:33;8.67;7.51;
62631;PMS5003;48703;51.248;-0.546;2023-03-01T15:05:35;8.41;7.97;
62631;PMS5003;48703;51.248;-0.546;2023-03-01T15:08:37;6.97;5.47;
62631;PMS5003;48703;51.248;-0.546;2023-03-01T15:11:39;5.67;4.64;
62631;PMS5003;48703;51.248;-0.546;2023-03-01T15:14:41;7.26;5.70;
62631;PMS5003;48703;51.248;-0.546;2023-03-01T15:17:42;7.50;6.60;
62631;PMS5003;48703;51.248;-0.546;2023-03-01T15:20:44;6.59;6.50;
62631;PMS5003;48703;51.248;-0.546;2023-03-01T15:23:49;8.74;7.49;
62631;PMS5003;48703;51.248;-0.546;2023-03-01T15:26:50;8.37;7.89;
62631;PMS5003;48703;51.248;-0.546;2023-03-01T15:29:49;9.11;8.04;
62631;PMS5003;48703;51.248;-0.546;2023-03-01T15:33:15;9.04;8.03;
62631;PMS5003;48703;51.248;-0.546;2023-03-01T15:35:53;6.93;6.53;
62631;PMS5003;48703;51.248;-0.546;2023-03-01T15:38:54;8.26;7.80;
62631;PMS5003;48703;51.248;-0.546;2023-03-01T15:41:55;7.47;6.91;
62631;PMS5003;48703;51.248;-0.546;2023-03-01T15:45:07;6.63;5.57;
62631;PMS5003;48703;51.248;-0.546;2023-03-01T15:47:59;7.39;5.93;
62631;PMS5003;48703;51.248;-0.546;2023-03-01T15:51:00;5.44;4.53;
62631;PMS5003;48703;51.248;-0.546;2023-03-01T15:54:03;5.67;5.40;
62631;PMS5003;48703;51.248;-0.546;2023-03-01T15:57:03;3.37;3.37;
62631;PMS5003;48703;51.248;-0.546;2023-03-01T16:00:06;5.67;5.26;
62631;PMS5003;48703;51.248;-0.546;2023-03-01T16:03:07;8.21;7.57;
62631;PMS5003;48703;51.248;-0.546;2023-03-01T16:06:09;5.40;5.17;
62631;PMS5003;48703;51.248;-0.546;2023-03-01T16:09:10;6.84;6.29;
62631;PMS5003;48703;51.248;-0.546;2023-03-01T16:12:12;4.36;4.36;
62631;PMS5003;48703;51.248;-0.546;2023-03-01T16:15:15;4.61;4.10;
62631;PMS5003;48703;51.248;-0.546;2023-03-01T16:18:15;4.60;4.10;
62631;PMS5003;48703;51.248;-0.546;2023-03-01T16:21:19;5.90;4.79;
62631;PMS5003;48703;51.248;-0.546;2023-03-01T16:24:19;6.11;5.56;
62631;PMS5003;48703;51.248;-0.546;2023-03-01T16:27:21;5.59;5.17;
62631;PMS5003;48703;51.248;-0.546;2023-03-01T16:30:22;5.09;4.53;
62631;PMS5003;48703;51.248;-0.546;2023-03-01T16:33:24;5.70;5.14;
62631;PMS5003;48703;51.248;-0.546;2023-03-01T16:36:26;6.21;5.30;
62631;PMS5003;48703;51.248;-0.546;2023-03-01T16:39:28;4.89;4.31;
62631;PMS5003;48703;51.248;-0.546;2023-03-01T16:42:32;5.87;5.70;
62631;PMS5003;48703;51.248;-0.546;2023-03-01T16:45:32;8.16;6.36;
62631;PMS5003;48703;51.248;-0.546;2023-03-01T16:48:33;7.13;6.47;
62631;PMS5003;48703;51.248;-0.546;2023-03-01T16:51:34;8.11;8.11;
62631;PMS5003;48703;51.248;-0.546;2023-03-01T16:54:36;20.97;20.71;
62631;PMS5003;48703;51.248;-0.546;2023-03-01T16:57:38;38.16;35.61;
62631;PMS5003;48703;51.248;-0.546;2023-03-01T17:00:39;30.59;29.68;
62631;PMS5003;48703;51.248;-0.546;2023-03-01T17:03:41;13.50;13.29;
62631;PMS5003;48703;51.248;-0.546;2023-03-01T17:06:43;12.76;12.16;
62631;PMS5003;48703;51.248;-0.546;2023-03-01T17:09:44;16.90;16.41;
62631;PMS5003;48703;51.248;-0.546;2023-03-01T17:12:47;10.81;10.29;
62631;PMS5003;48703;51.248;-0.546;2023-03-01T17:15:48;10.49;8.83;
62631;PMS5003;48703;51.248;-0.546;2023-03-01T17:18:50;15.67;15.36;
62631;PMS5003;48703;51.248;-0.546;2023-03-01T17:21:52;19.67;19.47;
62631;PMS5003;48703;51.248;-0.546;2023-03-01T17:24:53;17.56;15.31;
62631;PMS5003;48703;51.248;-0.546;2023-03-01T17:27:55;10.00;9.91;
62631;PMS5003;48703;51.248;-0.546;2023-03-01T17:30:57;7.77;7.75;
62631;PMS5003;48703;51.248;-0.546;2023-03-01T17:33:58;10.19;7.86;
62631;PMS5003;48703;51.248;-0.546;2023-03-01T17:37:00;10.01;8.99;
62631;PMS5003;48703;51.248;-0.546;2023-03-01T17:40:02;9.56;8.13;
62631;PMS5003;48703;51.248;-0.546;2023-03-01T17:43:03;8.03;7.04;
62631;PMS5003;48703;51.248;-0.546;2023-03-01T17:46:04;10.13;9.09;
62631;PMS5003;48703;51.248;-0.546;2023-03-01T17:49:06;10.97;9.86;
62631;PMS5003;48703;51.248;-0.546;2023-03-01T17:52:08;10.10;8.94;
62631;PMS5003;48703;51.248;-0.546;2023-03-01T17:55:10;8.64;7.66;
62631;PMS5003;48703;51.248;-0.546;2023-03-01T17:58:12;8.27;7.67;
62631;PMS5003;48703;51.248;-0.546;2023-03-01T18:01:15;10.01;8.81;
62631;PMS5003;48703;51.248;-0.546;2023-03-01T18:04:15;8.29;7.86;
62631;PMS5003;48703;51.248;-0.546;2023-03-01T18:07:17;10.26;8.06;
62631;PMS5003;48703;51.248;-0.546;2023-03-01T18:10:19;7.40;7.10;
62631;PMS5003;48703;51.248;-0.546;2023-03-01T18:13:20;8.29;7.03;
62631;PMS5003;48703;51.248;-0.546;2023-03-01T18:16:22;8.27;8.27;
62631;PMS5003;48703;51.248;-0.546;2023-03-01T18:19:24;8.07;7.90;
62631;PMS5003;48703;51.248;-0.546;2023-03-01T18:22:25;8.40;8.40;